sensor_id;sensor_type;location;lat;lon;timestamp;P1;durP1;ratioP1;P2;durP2;ratioP2
1569;SDS011;778;50.120;8.698;2023-10-13T00:01:24;11.30;;;9.40;;
1569;SDS011;778;50.120;8.698;2023-10-13T00:03:54;14.93;;;9.20;;
1569;SDS011;778;50.120;8.698;2023-10-13T00:06:22;16.60;;;9.93;;
1569;SDS011;778;50.120;8.698;2023-10-13T00:08:53;14.30;;;9.10;;
1569;SDS011;778;50.120;8.698;2023-10-13T00:11:21;13.37;;;9.67;;
1569;SDS011;778;50.120;8.698;2023-10-13T00:13:53;12.93;;;10.10;;
1569;SDS011;778;50.120;8.698;2023-10-13T00:16:21;14.97;;;9.87;;
1569;SDS011;778;50.120;8.698;2023-10-13T00:18:55;10.20;;;8.57;;
1569;SDS011;778;50.120;8.698;2023-10-13T00:21:24;9.97;;;8.97;;
1569;SDS011;778;50.120;8.698;2023-10-13T00:23:59;13.57;;;10.70;;
1569;SDS011;778;50.120;8.698;2023-10-13T00:26:32;13.00;;;9.20;;
1569;SDS011;778;50.120;8.698;2023-10-13T00:29:03;10.57;;;9.40;;
1569;SDS011;778;50.120;8.698;2023-10-13T00:31:42;13.90;;;9.97;;
1569;SDS011;778;50.120;8.698;2023-10-13T00:34:16;13.20;;;9.60;;
1569;SDS011;778;50.120;8.698;2023-10-13T00:36:52;14.60;;;9.40;;
1569;SDS011;778;50.120;8.698;2023-10-13T00:39:34;14.73;;;10.40;;
1569;SDS011;778;50.120;8.698;2023-10-13T00:42:04;11.63;;;10.37;;
1569;SDS011;778;50.120;8.698;2023-10-13T00:44:34;18.33;;;10.13;;
1569;SDS011;778;50.120;8.698;2023-10-13T00:47:04;12.27;;;9.80;;
1569;SDS011;778;50.120;8.698;2023-10-13T00:49:37;14.40;;;10.37;;
1569;SDS011;778;50.120;8.698;2023-10-13T00:52:07;16.40;;;11.37;;
1569;SDS011;778;50.120;8.698;2023-10-13T00:54:36;17.07;;;11.47;;
1569;SDS011;778;50.120;8.698;2023-10-13T00:57:06;14.60;;;10.23;;
1569;SDS011;778;50.120;8.698;2023-10-13T00:59:39;11.83;;;9.77;;
1569;SDS011;778;50.120;8.698;2023-10-13T01:02:13;15.57;;;10.43;;
1569;SDS011;778;50.120;8.698;2023-10-13T01:05:06;15.33;;;11.93;;
1569;SDS011;778;50.120;8.698;2023-10-13T01:07:36;26.83;;;12.47;;
1569;SDS011;778;50.120;8.698;2023-10-13T01:10:08;14.20;;;10.57;;
1569;SDS011;778;50.120;8.698;2023-10-13T01:12:40;15.83;;;10.60;;
1569;SDS011;778;50.120;8.698;2023-10-13T01:15:10;13.53;;;10.67;;
1569;SDS011;778;50.120;8.698;2023-10-13T01:17:42;15.90;;;10.33;;
1569;SDS011;778;50.120;8.698;2023-10-13T01:20:14;18.20;;;10.53;;
1569;SDS011;778;50.120;8.698;2023-10-13T01:22:51;13.47;;;10.23;;
1569;SDS011;778;50.120;8.698;2023-10-13T01:25:24;16.17;;;11.70;;
1569;SDS011;778;50.120;8.698;2023-10-13T01:27:55;12.30;;;11.10;;
1569;SDS011;778;50.120;8.698;2023-10-13T01:30:23;16.87;;;10.63;;
1569;SDS011;778;50.120;8.698;2023-10-13T01:32:53;13.30;;;9.97;;
1569;SDS011;778;50.120;8.698;2023-10-13T01:35:21;16.07;;;11.30;;
1569;SDS011;778;50.120;8.698;2023-10-13T01:37:52;13.30;;;11.90;;
1569;SDS011;778;50.120;8.698;2023-10-13T01:40:20;13.33;;;11.03;;
1569;SDS011;778;50.120;8.698;2023-10-13T01:42:57;14.43;;;10.80;;
1569;SDS011;778;50.120;8.698;2023-10-13T01:45:25;16.53;;;11.13;;
1569;SDS011;778;50.120;8.698;2023-10-13T01:47:55;14.33;;;11.33;;
1569;SDS011;778;50.120;8.698;2023-10-13T01:50:24;11.97;;;10.77;;
1569;SDS011;778;50.120;8.698;2023-10-13T01:52:56;14.00;;;11.63;;
1569;SDS011;778;50.120;8.698;2023-10-13T01:55:38;18.27;;;11.13;;
1569;SDS011;778;50.120;8.698;2023-10-13T01:58:11;13.47;;;9.73;;
1569;SDS011;778;50.120;8.698;2023-10-13T02:00:49;11.93;;;10.73;;
1569;SDS011;778;50.120;8.698;2023-10-13T02:03:17;12.00;;;10.23;;
1569;SDS011;778;50.120;8.698;2023-10-13T02:05:48;12.00;;;10.10;;
1569;SDS011;778;50.120;8.698;2023-10-13T02:08:20;12.87;;;10.33;;
1569;SDS011;778;50.120;8.698;2023-10-13T02:10:53;26.10;;;11.10;;
1569;SDS011;778;50.120;8.698;2023-10-13T02:13:24;14.13;;;10.13;;
1569;SDS011;778;50.120;8.698;2023-10-13T02:15:55;12.90;;;9.83;;
1569;SDS011;778;50.120;8.698;2023-10-13T02:18:24;13.80;;;10.50;;
1569;SDS011;778;50.120;8.698;2023-10-13T02:21:02;14.17;;;9.87;;
1569;SDS011;778;50.120;8.698;2023-10-13T02:23:31;12.73;;;9.90;;
1569;SDS011;778;50.120;8.698;2023-10-13T02:25:59;17.03;;;9.83;;
1569;SDS011;778;50.120;8.698;2023-10-13T02:28:30;16.17;;;10.40;;
1569;SDS011;778;50.120;8.698;2023-10-13T02:31:01;14.17;;;10.50;;
1569;SDS011;778;50.120;8.698;2023-10-13T02:33:30;14.60;;;10.77;;
1569;SDS011;778;50.120;8.698;2023-10-13T02:35:59;15.37;;;9.63;;
1569;SDS011;778;50.120;8.698;2023-10-13T02:38:31;15.10;;;11.60;;
1569;SDS011;778;50.120;8.698;2023-10-13T02:41:10;18.80;;;10.87;;
1569;SDS011;778;50.120;8.698;2023-10-13T02:43:39;14.97;;;11.23;;
1569;SDS011;778;50.120;8.698;2023-10-13T02:46:10;18.43;;;11.23;;
1569;SDS011;778;50.120;8.698;2023-10-13T02:48:37;16.77;;;11.30;;
1569;SDS011;778;50.120;8.698;2023-10-13T02:51:08;16.33;;;10.97;;
1569;SDS011;778;50.120;8.698;2023-10-13T02:53:42;20.77;;;11.33;;
1569;SDS011;778;50.120;8.698;2023-10-13T02:56:13;15.50;;;10.60;;
1569;SDS011;778;50.120;8.698;2023-10-13T02:58:48;19.07;;;10.90;;
1569;SDS011;778;50.120;8.698;2023-10-13T03:01:23;14.17;;;10.13;;
1569;SDS011;778;50.120;8.698;2023-10-13T03:03:55;13.97;;;10.70;;
1569;SDS011;778;50.120;8.698;2023-10-13T03:06:26;15.67;;;10.60;;
1569;SDS011;778;50.120;8.698;2023-10-13T03:08:59;16.00;;;11.17;;
1569;SDS011;778;50.120;8.698;2023-10-13T03:11:40;15.07;;;11.07;;
1569;SDS011;778;50.120;8.698;2023-10-13T03:14:10;20.37;;;12.03;;
1569;SDS011;778;50.120;8.698;2023-10-13T03:16:51;13.87;;;11.17;;
1569;SDS011;778;50.120;8.698;2023-10-13T03:19:19;12.57;;;11.27;;
1569;SDS011;778;50.120;8.698;2023-10-13T03:21:49;12.90;;;11.10;;
1569;SDS011;778;50.120;8.698;2023-10-13T03:24:21;13.00;;;11.07;;
1569;SDS011;778;50.120;8.698;2023-10-13T03:26:59;19.80;;;10.90;;
1569;SDS011;778;50.120;8.698;2023-10-13T03:29:37;13.83;;;10.47;;
1569;SDS011;778;50.120;8.698;2023-10-13T03:32:09;14.87;;;11.87;;
1569;SDS011;778;50.120;8.698;2023-10-13T03:34:41;16.40;;;11.30;;
1569;SDS011;778;50.120;8.698;2023-10-13T03:37:33;15.93;;;11.10;;
1569;SDS011;778;50.120;8.698;2023-10-13T03:40:06;11.60;;;10.43;;
1569;SDS011;778;50.120;8.698;2023-10-13T03:42:57;12.47;;;11.17;;
1569;SDS011;778;50.120;8.698;2023-10-13T03:45:33;11.67;;;10.47;;
1569;SDS011;778;50.120;8.698;2023-10-13T03:48:06;13.00;;;10.73;;
1569;SDS011;778;50.120;8.698;2023-10-13T03:50:56;19.17;;;10.73;;
1569;SDS011;778;50.120;8.698;2023-10-13T03:53:30;14.63;;;11.30;;
1569;SDS011;778;50.120;8.698;2023-10-13T03:56:02;19.40;;;12.50;;
1569;SDS011;778;50.120;8.698;2023-10-13T03:58:41;14.80;;;11.20;;
1569;SDS011;778;50.120;8.698;2023-10-13T04:01:14;16.57;;;11.07;;
1569;SDS011;778;50.120;8.698;2023-10-13T04:03:43;16.47;;;11.07;;
1569;SDS011;778;50.120;8.698;2023-10-13T04:06:29;17.00;;;12.50;;
1569;SDS011;778;50.120;8.698;2023-10-13T04:09:25;13.57;;;11.67;;
1569;SDS011;778;50.120;8.698;2023-10-13T04:12:11;12.90;;;11.47;;
1569;SDS011;778;50.120;8.698;2023-10-13T04:15:09;15.70;;;12.10;;
1569;SDS011;778;50.120;8.698;2023-10-13T04:17:51;18.63;;;11.43;;
1569;SDS011;778;50.120;8.698;2023-10-13T04:20:19;14.20;;;10.80;;
1569;SDS011;778;50.120;8.698;2023-10-13T04:22:59;20.47;;;12.37;;
1569;SDS011;778;50.120;8.698;2023-10-13T04:25:52;14.87;;;11.27;;
1569;SDS011;778;50.120;8.698;2023-10-13T04:28:34;12.40;;;11.10;;
1569;SDS011;778;50.120;8.698;2023-10-13T04:31:17;18.00;;;10.77;;
1569;SDS011;778;50.120;8.698;2023-10-13T04:34:04;15.00;;;11.43;;
1569;SDS011;778;50.120;8.698;2023-10-13T04:36:42;16.97;;;11.80;;
1569;SDS011;778;50.120;8.698;2023-10-13T04:39:13;20.53;;;12.17;;
1569;SDS011;778;50.120;8.698;2023-10-13T04:41:55;20.67;;;12.40;;
1569;SDS011;778;50.120;8.698;2023-10-13T04:44:33;18.70;;;11.30;;
1569;SDS011;778;50.120;8.698;2023-10-13T04:47:19;20.43;;;12.13;;
1569;SDS011;778;50.120;8.698;2023-10-13T04:49:50;19.40;;;12.13;;
1569;SDS011;778;50.120;8.698;2023-10-13T04:52:27;16.80;;;11.37;;
1569;SDS011;778;50.120;8.698;2023-10-13T04:55:27;15.87;;;12.00;;
1569;SDS011;778;50.120;8.698;2023-10-13T04:58:13;13.07;;;11.17;;
1569;SDS011;778;50.120;8.698;2023-10-13T05:01:12;14.27;;;11.27;;
1569;SDS011;778;50.120;8.698;2023-10-13T05:04:26;12.77;;;10.90;;
1569;SDS011;778;50.120;8.698;2023-10-13T05:07:27;14.93;;;11.60;;
1569;SDS011;778;50.120;8.698;2023-10-13T05:10:13;18.33;;;11.50;;
1569;SDS011;778;50.120;8.698;2023-10-13T05:12:59;13.90;;;11.40;;
1569;SDS011;778;50.120;8.698;2023-10-13T05:15:54;15.70;;;12.23;;
1569;SDS011;778;50.120;8.698;2023-10-13T05:18:39;16.80;;;11.60;;
1569;SDS011;778;50.120;8.698;2023-10-13T05:21:25;18.40;;;12.63;;
1569;SDS011;778;50.120;8.698;2023-10-13T05:24:12;20.40;;;12.10;;
1569;SDS011;778;50.120;8.698;2023-10-13T05:26:59;15.83;;;12.23;;
1569;SDS011;778;50.120;8.698;2023-10-13T05:29:45;14.17;;;10.97;;
1569;SDS011;778;50.120;8.698;2023-10-13T05:32:32;14.27;;;11.77;;
1569;SDS011;778;50.120;8.698;2023-10-13T05:35:19;20.43;;;12.07;;
1569;SDS011;778;50.120;8.698;2023-10-13T05:38:06;12.00;;;10.20;;
1569;SDS011;778;50.120;8.698;2023-10-13T05:40:53;20.43;;;10.93;;
1569;SDS011;778;50.120;8.698;2023-10-13T05:43:47;12.97;;;11.30;;
1569;SDS011;778;50.120;8.698;2023-10-13T05:46:34;14.83;;;10.80;;
1569;SDS011;778;50.120;8.698;2023-10-13T05:49:28;16.30;;;11.50;;
1569;SDS011;778;50.120;8.698;2023-10-13T05:52:16;11.90;;;10.20;;
1569;SDS011;778;50.120;8.698;2023-10-13T05:55:11;14.17;;;11.40;;
1569;SDS011;778;50.120;8.698;2023-10-13T05:57:58;17.40;;;11.57;;
1569;SDS011;778;50.120;8.698;2023-10-13T06:00:44;18.30;;;11.30;;
1569;SDS011;778;50.120;8.698;2023-10-13T06:03:30;17.23;;;11.57;;
1569;SDS011;778;50.120;8.698;2023-10-13T06:06:15;14.43;;;11.40;;
1569;SDS011;778;50.120;8.698;2023-10-13T06:09:01;14.30;;;10.87;;
1569;SDS011;778;50.120;8.698;2023-10-13T06:11:48;16.47;;;11.30;;
1569;SDS011;778;50.120;8.698;2023-10-13T06:14:35;18.27;;;11.37;;
1569;SDS011;778;50.120;8.698;2023-10-13T06:17:22;18.10;;;11.97;;
1569;SDS011;778;50.120;8.698;2023-10-13T06:20:08;13.37;;;11.20;;
1569;SDS011;778;50.120;8.698;2023-10-13T06:23:06;14.70;;;10.93;;
1569;SDS011;778;50.120;8.698;2023-10-13T06:25:52;18.87;;;11.80;;
1569;SDS011;778;50.120;8.698;2023-10-13T06:28:39;16.27;;;12.03;;
1569;SDS011;778;50.120;8.698;2023-10-13T06:31:14;18.97;;;11.30;;
1569;SDS011;778;50.120;8.698;2023-10-13T06:33:49;16.23;;;11.00;;
1569;SDS011;778;50.120;8.698;2023-10-13T06:36:18;19.00;;;12.10;;
1569;SDS011;778;50.120;8.698;2023-10-13T06:38:47;16.77;;;11.30;;
1569;SDS011;778;50.120;8.698;2023-10-13T06:41:43;18.50;;;12.40;;
1569;SDS011;778;50.120;8.698;2023-10-13T06:44:13;13.90;;;12.03;;
1569;SDS011;778;50.120;8.698;2023-10-13T06:46:44;22.13;;;12.27;;
1569;SDS011;778;50.120;8.698;2023-10-13T06:49:12;13.83;;;11.60;;
1569;SDS011;778;50.120;8.698;2023-10-13T06:51:41;14.47;;;11.07;;
1569;SDS011;778;50.120;8.698;2023-10-13T06:54:09;14.40;;;10.40;;
1569;SDS011;778;50.120;8.698;2023-10-13T06:56:46;15.63;;;12.27;;
1569;SDS011;778;50.120;8.698;2023-10-13T06:59:19;17.13;;;10.50;;
1569;SDS011;778;50.120;8.698;2023-10-13T07:01:54;16.00;;;11.37;;
1569;SDS011;778;50.120;8.698;2023-10-13T07:04:49;19.13;;;10.90;;
1569;SDS011;778;50.120;8.698;2023-10-13T07:07:24;20.90;;;11.67;;
1569;SDS011;778;50.120;8.698;2023-10-13T07:09:52;19.00;;;11.27;;
1569;SDS011;778;50.120;8.698;2023-10-13T07:12:24;15.43;;;10.87;;
1569;SDS011;778;50.120;8.698;2023-10-13T07:14:53;14.30;;;10.30;;
1569;SDS011;778;50.120;8.698;2023-10-13T07:17:38;17.80;;;10.00;;
1569;SDS011;778;50.120;8.698;2023-10-13T07:20:11;17.20;;;10.80;;
1569;SDS011;778;50.120;8.698;2023-10-13T07:22:50;13.27;;;9.73;;
1569;SDS011;778;50.120;8.698;2023-10-13T07:25:28;12.90;;;11.27;;
1569;SDS011;778;50.120;8.698;2023-10-13T07:27:59;12.43;;;9.60;;
1569;SDS011;778;50.120;8.698;2023-10-13T07:30:29;16.40;;;10.20;;
1569;SDS011;778;50.120;8.698;2023-10-13T07:33:07;18.97;;;11.87;;
1569;SDS011;778;50.120;8.698;2023-10-13T07:35:39;12.73;;;9.97;;
1569;SDS011;778;50.120;8.698;2023-10-13T07:38:08;19.53;;;11.03;;
1569;SDS011;778;50.120;8.698;2023-10-13T07:40:37;26.07;;;12.60;;
1569;SDS011;778;50.120;8.698;2023-10-13T07:43:07;15.77;;;10.20;;
1569;SDS011;778;50.120;8.698;2023-10-13T07:45:39;15.73;;;9.90;;
1569;SDS011;778;50.120;8.698;2023-10-13T07:48:11;14.27;;;9.97;;
1569;SDS011;778;50.120;8.698;2023-10-13T07:50:45;16.50;;;11.13;;
1569;SDS011;778;50.120;8.698;2023-10-13T07:53:15;17.30;;;10.20;;
1569;SDS011;778;50.120;8.698;2023-10-13T07:55:49;13.73;;;9.80;;
1569;SDS011;778;50.120;8.698;2023-10-13T07:58:22;17.40;;;9.80;;
1569;SDS011;778;50.120;8.698;2023-10-13T08:00:52;10.80;;;9.37;;
1569;SDS011;778;50.120;8.698;2023-10-13T08:03:35;17.90;;;8.83;;
1569;SDS011;778;50.120;8.698;2023-10-13T08:06:13;18.63;;;9.43;;
1569;SDS011;778;50.120;8.698;2023-10-13T08:08:55;12.50;;;8.23;;
1569;SDS011;778;50.120;8.698;2023-10-13T08:11:34;8.93;;;8.03;;
1569;SDS011;778;50.120;8.698;2023-10-13T08:14:04;10.33;;;8.80;;
1569;SDS011;778;50.120;8.698;2023-10-13T08:17:05;14.63;;;8.37;;
1569;SDS011;778;50.120;8.698;2023-10-13T08:19:38;16.27;;;9.63;;
1569;SDS011;778;50.120;8.698;2023-10-13T08:22:12;16.90;;;9.17;;
1569;SDS011;778;50.120;8.698;2023-10-13T08:25:02;15.53;;;10.20;;
1569;SDS011;778;50.120;8.698;2023-10-13T08:28:11;15.03;;;8.80;;
1569;SDS011;778;50.120;8.698;2023-10-13T08:31:08;11.93;;;7.43;;
1569;SDS011;778;50.120;8.698;2023-10-13T08:33:48;13.90;;;7.77;;
1569;SDS011;778;50.120;8.698;2023-10-13T08:36:19;12.33;;;8.07;;
1569;SDS011;778;50.120;8.698;2023-10-13T08:38:57;7.93;;;6.93;;
1569;SDS011;778;50.120;8.698;2023-10-13T08:41:42;15.20;;;7.50;;
1569;SDS011;778;50.120;8.698;2023-10-13T08:44:25;10.47;;;7.17;;
1569;SDS011;778;50.120;8.698;2023-10-13T08:47:11;9.47;;;7.07;;
1569;SDS011;778;50.120;8.698;2023-10-13T08:49:44;15.50;;;7.83;;
1569;SDS011;778;50.120;8.698;2023-10-13T08:52:20;12.03;;;7.30;;
1569;SDS011;778;50.120;8.698;2023-10-13T08:55:09;13.20;;;7.50;;
1569;SDS011;778;50.120;8.698;2023-10-13T08:57:57;12.60;;;7.30;;
1569;SDS011;778;50.120;8.698;2023-10-13T09:00:30;11.40;;;8.43;;
1569;SDS011;778;50.120;8.698;2023-10-13T09:03:13;10.83;;;6.90;;
1569;SDS011;778;50.120;8.698;2023-10-13T09:05:56;11.40;;;6.90;;
1569;SDS011;778;50.120;8.698;2023-10-13T09:08:34;12.97;;;6.57;;
1569;SDS011;778;50.120;8.698;2023-10-13T09:11:10;12.90;;;6.67;;
1569;SDS011;778;50.120;8.698;2023-10-13T09:13:39;14.03;;;6.80;;
1569;SDS011;778;50.120;8.698;2023-10-13T09:16:14;10.97;;;6.33;;
1569;SDS011;778;50.120;8.698;2023-10-13T09:19:09;9.53;;;7.30;;
1569;SDS011;778;50.120;8.698;2023-10-13T09:21:39;10.47;;;7.57;;
1569;SDS011;778;50.120;8.698;2023-10-13T09:24:16;9.00;;;6.53;;
1569;SDS011;778;50.120;8.698;2023-10-13T09:26:54;10.17;;;6.63;;
1569;SDS011;778;50.120;8.698;2023-10-13T09:29:22;10.97;;;7.13;;
1569;SDS011;778;50.120;8.698;2023-10-13T09:32:01;10.80;;;6.90;;
1569;SDS011;778;50.120;8.698;2023-10-13T09:34:31;8.23;;;5.90;;
1569;SDS011;778;50.120;8.698;2023-10-13T09:37:07;10.47;;;6.30;;
1569;SDS011;778;50.120;8.698;2023-10-13T09:39:39;14.80;;;7.23;;
1569;SDS011;778;50.120;8.698;2023-10-13T09:42:15;14.20;;;6.30;;
1569;SDS011;778;50.120;8.698;2023-10-13T09:44:45;14.97;;;6.43;;
1569;SDS011;778;50.120;8.698;2023-10-13T09:47:26;8.83;;;6.27;;
1569;SDS011;778;50.120;8.698;2023-10-13T09:50:04;9.80;;;6.77;;
1569;SDS011;778;50.120;8.698;2023-10-13T09:52:50;9.40;;;6.83;;
1569;SDS011;778;50.120;8.698;2023-10-13T09:55:26;7.53;;;5.70;;
1569;SDS011;778;50.120;8.698;2023-10-13T09:58:00;14.77;;;7.20;;
1569;SDS011;778;50.120;8.698;2023-10-13T10:00:40;11.13;;;6.47;;
1569;SDS011;778;50.120;8.698;2023-10-13T10:03:15;9.97;;;6.40;;
1569;SDS011;778;50.120;8.698;2023-10-13T10:05:57;9.90;;;6.77;;
1569;SDS011;778;50.120;8.698;2023-10-13T10:08:33;10.33;;;6.50;;
1569;SDS011;778;50.120;8.698;2023-10-13T10:11:22;10.73;;;6.17;;
1569;SDS011;778;50.120;8.698;2023-10-13T10:14:36;10.90;;;6.77;;
1569;SDS011;778;50.120;8.698;2023-10-13T10:17:27;6.50;;;5.90;;
1569;SDS011;778;50.120;8.698;2023-10-13T10:19:59;10.00;;;6.20;;
1569;SDS011;778;50.120;8.698;2023-10-13T10:22:33;10.33;;;6.50;;
1569;SDS011;778;50.120;8.698;2023-10-13T10:25:03;9.90;;;6.90;;
1569;SDS011;778;50.120;8.698;2023-10-13T10:27:55;8.70;;;7.37;;
1569;SDS011;778;50.120;8.698;2023-10-13T10:30:25;9.10;;;6.47;;
1569;SDS011;778;50.120;8.698;2023-10-13T10:32:55;8.70;;;6.97;;
1569;SDS011;778;50.120;8.698;2023-10-13T10:35:26;9.20;;;6.57;;
1569;SDS011;778;50.120;8.698;2023-10-13T10:37:58;8.83;;;5.73;;
1569;SDS011;778;50.120;8.698;2023-10-13T10:40:49;8.50;;;7.37;;
1569;SDS011;778;50.120;8.698;2023-10-13T10:43:25;7.73;;;6.53;;
1569;SDS011;778;50.120;8.698;2023-10-13T10:45:59;10.17;;;6.60;;
1569;SDS011;778;50.120;8.698;2023-10-13T10:48:30;10.50;;;6.07;;
1569;SDS011;778;50.120;8.698;2023-10-13T10:51:00;8.90;;;6.60;;
1569;SDS011;778;50.120;8.698;2023-10-13T10:53:41;10.60;;;7.27;;
1569;SDS011;778;50.120;8.698;2023-10-13T10:56:13;7.97;;;6.83;;
1569;SDS011;778;50.120;8.698;2023-10-13T10:58:54;9.73;;;6.50;;
1569;SDS011;778;50.120;8.698;2023-10-13T11:01:25;6.90;;;6.20;;
1569;SDS011;778;50.120;8.698;2023-10-13T11:04:01;9.20;;;6.30;;
1569;SDS011;778;50.120;8.698;2023-10-13T11:06:37;10.27;;;6.77;;
1569;SDS011;778;50.120;8.698;2023-10-13T11:09:09;8.87;;;6.20;;
1569;SDS011;778;50.120;8.698;2023-10-13T11:11:47;10.27;;;7.03;;
1569;SDS011;778;50.120;8.698;2023-10-13T11:14:21;8.00;;;7.00;;
1569;SDS011;778;50.120;8.698;2023-10-13T11:16:50;6.80;;;6.20;;
1569;SDS011;778;50.120;8.698;2023-10-13T11:19:21;8.47;;;6.97;;
1569;SDS011;778;50.120;8.698;2023-10-13T11:22:11;8.83;;;7.00;;
1569;SDS011;778;50.120;8.698;2023-10-13T11:24:56;8.60;;;6.53;;
1569;SDS011;778;50.120;8.698;2023-10-13T11:27:29;7.13;;;6.53;;
1569;SDS011;778;50.120;8.698;2023-10-13T11:30:25;8.50;;;7.03;;
1569;SDS011;778;50.120;8.698;2023-10-13T11:33:08;8.00;;;7.20;;
1569;SDS011;778;50.120;8.698;2023-10-13T11:35:38;6.97;;;6.30;;
1569;SDS011;778;50.120;8.698;2023-10-13T11:38:29;10.00;;;6.77;;
1569;SDS011;778;50.120;8.698;2023-10-13T11:41:09;7.37;;;6.07;;
1569;SDS011;778;50.120;8.698;2023-10-13T11:43:43;8.60;;;7.27;;
1569;SDS011;778;50.120;8.698;2023-10-13T11:46:40;10.93;;;6.67;;
1569;SDS011;778;50.120;8.698;2023-10-13T11:49:23;7.53;;;6.17;;
1569;SDS011;778;50.120;8.698;2023-10-13T11:52:04;10.03;;;7.00;;
1569;SDS011;778;50.120;8.698;2023-10-13T11:54:52;9.70;;;6.47;;
1569;SDS011;778;50.120;8.698;2023-10-13T11:57:20;9.30;;;7.00;;
1569;SDS011;778;50.120;8.698;2023-10-13T11:59:48;11.67;;;6.53;;
1569;SDS011;778;50.120;8.698;2023-10-13T12:02:47;8.53;;;6.50;;
1569;SDS011;778;50.120;8.698;2023-10-13T12:05:33;8.40;;;6.80;;
1569;SDS011;778;50.120;8.698;2023-10-13T12:08:16;10.47;;;6.53;;
1569;SDS011;778;50.120;8.698;2023-10-13T12:10:59;7.33;;;6.00;;
1569;SDS011;778;50.120;8.698;2023-10-13T12:13:47;11.33;;;6.77;;
1569;SDS011;778;50.120;8.698;2023-10-13T12:16:16;6.73;;;6.13;;
1569;SDS011;778;50.120;8.698;2023-10-13T12:18:47;8.70;;;7.13;;
1569;SDS011;778;50.120;8.698;2023-10-13T12:21:20;10.87;;;7.10;;
1569;SDS011;778;50.120;8.698;2023-10-13T12:23:48;9.20;;;6.40;;
1569;SDS011;778;50.120;8.698;2023-10-13T12:26:17;7.93;;;6.90;;
1569;SDS011;778;50.120;8.698;2023-10-13T12:28:46;7.63;;;6.43;;
1569;SDS011;778;50.120;8.698;2023-10-13T12:31:19;9.30;;;6.33;;
1569;SDS011;778;50.120;8.698;2023-10-13T12:33:55;8.57;;;7.00;;
1569;SDS011;778;50.120;8.698;2023-10-13T12:36:32;7.57;;;6.87;;
1569;SDS011;778;50.120;8.698;2023-10-13T12:39:07;9.67;;;7.23;;
1569;SDS011;778;50.120;8.698;2023-10-13T12:42:04;11.40;;;6.90;;
1569;SDS011;778;50.120;8.698;2023-10-13T12:44:50;8.90;;;7.53;;
1569;SDS011;778;50.120;8.698;2023-10-13T12:47:36;9.23;;;6.40;;
1569;SDS011;778;50.120;8.698;2023-10-13T12:50:24;10.13;;;6.80;;
1569;SDS011;778;50.120;8.698;2023-10-13T12:53:10;9.63;;;7.30;;
1569;SDS011;778;50.120;8.698;2023-10-13T12:55:40;11.50;;;6.93;;
1569;SDS011;778;50.120;8.698;2023-10-13T12:58:09;8.20;;;7.40;;
1569;SDS011;778;50.120;8.698;2023-10-13T13:00:37;9.63;;;8.23;;
1569;SDS011;778;50.120;8.698;2023-10-13T13:03:06;10.73;;;7.13;;
1569;SDS011;778;50.120;8.698;2023-10-13T13:05:39;8.00;;;6.23;;
1569;SDS011;778;50.120;8.698;2023-10-13T13:08:12;7.27;;;6.20;;
1569;SDS011;778;50.120;8.698;2023-10-13T13:10:49;7.80;;;6.10;;
1569;SDS011;778;50.120;8.698;2023-10-13T13:13:18;9.80;;;6.37;;
1569;SDS011;778;50.120;8.698;2023-10-13T13:15:51;12.50;;;6.00;;
1569;SDS011;778;50.120;8.698;2023-10-13T13:18:19;7.83;;;6.30;;
1569;SDS011;778;50.120;8.698;2023-10-13T13:20:49;8.13;;;5.93;;
1569;SDS011;778;50.120;8.698;2023-10-13T13:23:21;8.83;;;6.70;;
1569;SDS011;778;50.120;8.698;2023-10-13T13:25:53;10.33;;;6.60;;
1569;SDS011;778;50.120;8.698;2023-10-13T13:28:24;6.60;;;6.00;;
1569;SDS011;778;50.120;8.698;2023-10-13T13:30:56;7.23;;;6.37;;
1569;SDS011;778;50.120;8.698;2023-10-13T13:33:25;10.00;;;6.70;;
1569;SDS011;778;50.120;8.698;2023-10-13T13:35:58;10.33;;;5.70;;
1569;SDS011;778;50.120;8.698;2023-10-13T13:38:27;7.30;;;6.60;;
1569;SDS011;778;50.120;8.698;2023-10-13T13:40:58;9.30;;;6.27;;
1569;SDS011;778;50.120;8.698;2023-10-13T13:43:29;10.67;;;5.97;;
1569;SDS011;778;50.120;8.698;2023-10-13T13:46:05;7.77;;;5.73;;
1569;SDS011;778;50.120;8.698;2023-10-13T13:48:37;8.53;;;6.90;;
1569;SDS011;778;50.120;8.698;2023-10-13T13:51:09;7.20;;;6.03;;
1569;SDS011;778;50.120;8.698;2023-10-13T13:53:42;7.83;;;6.90;;
1569;SDS011;778;50.120;8.698;2023-10-13T13:56:14;10.00;;;6.40;;
1569;SDS011;778;50.120;8.698;2023-10-13T13:58:45;14.17;;;7.03;;
1569;SDS011;778;50.120;8.698;2023-10-13T14:01:15;7.87;;;6.63;;
1569;SDS011;778;50.120;8.698;2023-10-13T14:03:46;7.33;;;6.63;;
1569;SDS011;778;50.120;8.698;2023-10-13T14:06:19;8.67;;;7.20;;
1569;SDS011;778;50.120;8.698;2023-10-13T14:08:51;7.27;;;6.20;;
1569;SDS011;778;50.120;8.698;2023-10-13T14:11:23;7.13;;;6.43;;
1569;SDS011;778;50.120;8.698;2023-10-13T14:14:10;9.00;;;6.27;;
1569;SDS011;778;50.120;8.698;2023-10-13T14:16:55;7.37;;;6.57;;
1569;SDS011;778;50.120;8.698;2023-10-13T14:19:34;9.03;;;8.10;;
1569;SDS011;778;50.120;8.698;2023-10-13T14:22:08;7.37;;;5.90;;
1569;SDS011;778;50.120;8.698;2023-10-13T14:24:39;11.70;;;6.50;;
1569;SDS011;778;50.120;8.698;2023-10-13T14:27:18;8.63;;;6.33;;
1569;SDS011;778;50.120;8.698;2023-10-13T14:29:49;8.50;;;6.03;;
1569;SDS011;778;50.120;8.698;2023-10-13T14:32:20;12.13;;;7.30;;
1569;SDS011;778;50.120;8.698;2023-10-13T14:34:54;11.03;;;6.20;;
1569;SDS011;778;50.120;8.698;2023-10-13T14:37:24;11.70;;;6.20;;
1569;SDS011;778;50.120;8.698;2023-10-13T14:39:57;9.87;;;6.23;;
1569;SDS011;778;50.120;8.698;2023-10-13T14:42:27;8.23;;;5.50;;
1569;SDS011;778;50.120;8.698;2023-10-13T14:45:02;6.97;;;6.10;;
1569;SDS011;778;50.120;8.698;2023-10-13T14:47:39;8.27;;;7.03;;
1569;SDS011;778;50.120;8.698;2023-10-13T14:50:08;10.70;;;7.60;;
1569;SDS011;778;50.120;8.698;2023-10-13T14:52:45;9.00;;;5.93;;
1569;SDS011;778;50.120;8.698;2023-10-13T14:55:14;9.43;;;6.30;;
1569;SDS011;778;50.120;8.698;2023-10-13T14:57:46;7.00;;;5.67;;
1569;SDS011;778;50.120;8.698;2023-10-13T15:00:17;8.10;;;4.90;;
1569;SDS011;778;50.120;8.698;2023-10-13T15:02:52;10.30;;;5.53;;
1569;SDS011;778;50.120;8.698;2023-10-13T15:05:22;9.07;;;7.60;;
1569;SDS011;778;50.120;8.698;2023-10-13T15:07:52;9.77;;;6.80;;
1569;SDS011;778;50.120;8.698;2023-10-13T15:10:20;7.50;;;6.80;;
1569;SDS011;778;50.120;8.698;2023-10-13T15:12:51;12.40;;;8.93;;
1569;SDS011;778;50.120;8.698;2023-10-13T15:15:19;7.90;;;7.07;;
1569;SDS011;778;50.120;8.698;2023-10-13T15:17:47;8.73;;;7.50;;
1569;SDS011;778;50.120;8.698;2023-10-13T15:20:17;10.77;;;5.90;;
1569;SDS011;778;50.120;8.698;2023-10-13T15:22:45;7.00;;;5.23;;
1569;SDS011;778;50.120;8.698;2023-10-13T15:25:17;10.67;;;8.43;;
1569;SDS011;778;50.120;8.698;2023-10-13T15:27:57;8.97;;;6.33;;
1569;SDS011;778;50.120;8.698;2023-10-13T15:30:29;15.70;;;6.80;;
1569;SDS011;778;50.120;8.698;2023-10-13T15:33:11;10.93;;;6.30;;
1569;SDS011;778;50.120;8.698;2023-10-13T15:35:40;8.13;;;5.30;;
1569;SDS011;778;50.120;8.698;2023-10-13T15:38:11;10.77;;;4.97;;
1569;SDS011;778;50.120;8.698;2023-10-13T15:40:42;9.53;;;5.60;;
1569;SDS011;778;50.120;8.698;2023-10-13T15:43:12;8.83;;;6.40;;
1569;SDS011;778;50.120;8.698;2023-10-13T15:45:40;9.83;;;6.30;;
1569;SDS011;778;50.120;8.698;2023-10-13T15:48:09;11.63;;;6.90;;
1569;SDS011;778;50.120;8.698;2023-10-13T15:50:45;10.37;;;6.63;;
1569;SDS011;778;50.120;8.698;2023-10-13T15:53:16;6.60;;;5.90;;
1569;SDS011;778;50.120;8.698;2023-10-13T15:55:46;7.37;;;6.60;;
1569;SDS011;778;50.120;8.698;2023-10-13T15:58:15;8.37;;;5.90;;
1569;SDS011;778;50.120;8.698;2023-10-13T16:00:43;11.43;;;5.90;;
1569;SDS011;778;50.120;8.698;2023-10-13T16:03:14;9.97;;;5.23;;
1569;SDS011;778;50.120;8.698;2023-10-13T16:05:44;8.37;;;5.53;;
1569;SDS011;778;50.120;8.698;2023-10-13T16:08:14;9.07;;;5.23;;
1569;SDS011;778;50.120;8.698;2023-10-13T16:10:45;10.00;;;6.40;;
1569;SDS011;778;50.120;8.698;2023-10-13T16:13:16;9.63;;;6.30;;